Time;durP1;ratioP1;P1;durP2;ratioP2;P2;SDS_P1;SDS_P2;PMS_P1;PMS_P2;Temp;Humidity;BMP_temperature;BMP_pressure;BME280_temperature;BME280_humidity;BME280_pressure;Samples;Min_cycle;Max_cycle;Signal;HPM_P1;HPM_P2
2024/01/24 00:00:54;;;;;;;3.67;2.22;;;;;;;;;;5104097;28;20532;-76
2024/01/24 00:03:19;;;;;;;7.32;2.47;;;;;;;;;;5106185;28;20483;-76
2024/01/24 00:05:45;;;;;;;6.03;2.80;;;;;;;;;;5110105;28;20548;-76
2024/01/24 00:08:10;;;;;;;4.57;2.00;;;;;;;;;;5105707;28;20023;-76
2024/01/24 00:10:35;;;;;;;5.13;2.20;;;;;;;;;;5105590;28;20119;-76
2024/01/24 00:13:00;;;;;;;6.28;2.10;;;;;;;;;;5103259;28;20434;-76
2024/01/24 00:15:27;;;;;;;4.43;2.05;;;;;;;;;;5105746;28;20363;-76
2024/01/24 00:17:52;;;;;;;6.60;2.78;;;;;;;;;;5104047;28;20019;-76
2024/01/24 00:20:17;;;;;;;3.10;1.60;;;;;;;;;;5104722;28;20447;-76
2024/01/24 00:22:43;;;;;;;4.38;2.08;;;;;;;;;;5106156;28;20282;-76
2024/01/24 00:25:08;;;;;;;5.33;1.80;;;;;;;;;;5103958;28;20016;-76
2024/01/24 00:27:33;;;;;;;4.13;1.63;;;;;;;;;;5107519;28;20020;-76
2024/01/24 00:29:58;;;;;;;4.20;1.60;;;;;;;;;;5101858;28;20131;-76
2024/01/24 00:32:23;;;;;;;4.30;1.90;;;;;;;;;;5104613;28;20024;-76
2024/01/24 00:34:48;;;;;;;3.90;1.70;;;;;;;;;;5104567;28;20055;-76
2024/01/24 00:37:14;;;;;;;3.50;1.80;;;;;;;;;;5102612;28;20020;-76
2024/01/24 00:39:39;;;;;;;4.97;1.70;;;;;;;;;;5105529;28;20768;-76
2024/01/24 00:42:05;;;;;;;3.92;1.30;;;;;;;;;;5106861;28;20141;-76
2024/01/24 00:44:30;;;;;;;3.22;1.65;;;;;;;;;;5105166;27;20043;-76
2024/01/24 00:46:55;;;;;;;4.00;1.63;;;;;;;;;;5107547;28;20012;-76
2024/01/24 00:49:22;;;;;;;3.92;1.70;;;;;;;;;;5104690;28;20033;-76
2024/01/24 00:51:47;;;;;;;3.72;1.70;;;;;;;;;;5107959;28;20475;-76
2024/01/24 00:54:12;;;;;;;2.70;1.55;;;;;;;;;;5101615;28;20052;-76
2024/01/24 00:56:38;;;;;;;4.53;1.97;;;;;;;;;;5107628;28;20102;-76
2024/01/24 00:59:03;;;;;;;3.50;1.60;;;;;;;;;;5101187;28;20044;-75
2024/01/24 01:01:28;;;;;;;2.53;1.30;;;;;;;;;;5107438;28;20035;-76
2024/01/24 01:03:54;;;;;;;2.73;1.50;;;;;;;;;;5100766;28;20038;-76
2024/01/24 01:06:19;;;;;;;2.08;1.70;;;;;;;;;;5111984;28;20016;-76
2024/01/24 01:08:45;;;;;;;2.72;1.70;;;;;;;;;;5108322;28;20027;-76
2024/01/24 01:11:10;;;;;;;2.67;1.90;;;;;;;;;;5103003;28;20076;-76
2024/01/24 01:13:35;;;;;;;3.50;2.00;;;;;;;;;;5104626;28;20019;-76
2024/01/24 01:16:00;;;;;;;2.70;1.70;;;;;;;;;;5102102;28;20392;-76
2024/01/24 01:18:26;;;;;;;7.43;2.00;;;;;;;;;;5104918;28;20107;-76
2024/01/24 01:20:51;;;;;;;2.63;1.90;;;;;;;;;;5103808;28;20028;-76
2024/01/24 01:23:16;;;;;;;5.00;2.10;;;;;;;;;;5103446;28;20015;-76
2024/01/24 01:25:41;;;;;;;2.70;1.90;;;;;;;;;;5104210;28;20462;-76
2024/01/24 01:28:06;;;;;;;5.73;2.00;;;;;;;;;;5100539;28;20262;-76
2024/01/24 01:30:32;;;;;;;3.08;1.90;;;;;;;;;;5103275;28;20067;-76
2024/01/24 01:32:58;;;;;;;3.73;2.07;;;;;;;;;;5104325;28;20031;-76
2024/01/24 01:35:23;;;;;;;4.00;1.90;;;;;;;;;;5102072;28;20353;-76
2024/01/24 01:37:48;;;;;;;2.23;1.83;;;;;;;;;;5103401;28;20039;-76
2024/01/24 01:40:13;;;;;;;5.33;2.20;;;;;;;;;;5104310;28;20028;-76
2024/01/24 01:42:42;;;;;;;3.65;2.17;;;;;;;;;;5104402;28;20043;-76
2024/01/24 01:45:09;;;;;;;5.32;1.95;;;;;;;;;;5102612;28;20020;-76
2024/01/24 01:47:35;;;;;;;2.70;2.00;;;;;;;;;;5103326;28;20016;-76
2024/01/24 01:50:00;;;;;;;2.65;2.28;;;;;;;;;;5104122;28;20494;-76
2024/01/24 01:52:25;;;;;;;4.47;2.27;;;;;;;;;;5101484;28;20016;-76
2024/01/24 01:54:50;;;;;;;2.33;1.80;;;;;;;;;;5103986;28;20358;-76
2024/01/24 01:57:15;;;;;;;3.42;2.00;;;;;;;;;;5104176;28;20020;-76
2024/01/24 01:59:41;;;;;;;2.63;2.00;;;;;;;;;;5108340;28;20104;-76
2024/01/24 02:02:07;;;;;;;2.85;2.00;;;;;;;;;;5106580;28;20621;-76
2024/01/24 02:04:32;;;;;;;2.85;2.10;;;;;;;;;;5105891;28;20024;-76
2024/01/24 02:06:57;;;;;;;3.27;2.07;;;;;;;;;;5107465;28;20048;-76
2024/01/24 02:09:23;;;;;;;3.10;2.37;;;;;;;;;;5100542;28;20853;-76
2024/01/24 02:11:48;;;;;;;5.32;2.30;;;;;;;;;;5107896;28;20295;-76
2024/01/24 02:14:13;;;;;;;4.13;2.35;;;;;;;;;;5103473;28;20012;-76
2024/01/24 02:16:38;;;;;;;2.33;2.10;;;;;;;;;;5115676;28;20023;-76
2024/01/24 02:19:05;;;;;;;3.50;2.23;;;;;;;;;;5105593;28;20027;-76
2024/01/24 02:21:30;;;;;;;3.28;2.10;;;;;;;;;;5108435;28;20041;-77
2024/01/24 02:23:56;;;;;;;2.50;2.13;;;;;;;;;;5111150;28;20474;-77
2024/01/24 02:26:21;;;;;;;2.90;2.00;;;;;;;;;;5106267;28;20261;-77
2024/01/24 02:28:47;;;;;;;2.50;2.07;;;;;;;;;;5105716;28;20517;-77
2024/01/24 02:31:12;;;;;;;4.00;1.80;;;;;;;;;;5102579;28;20035;-77
2024/01/24 02:33:37;;;;;;;3.43;2.00;;;;;;;;;;5107014;28;20012;-77
2024/01/24 02:36:03;;;;;;;2.70;1.93;;;;;;;;;;5107556;28;20436;-77
2024/01/24 02:38:29;;;;;;;2.05;1.80;;;;;;;;;;5104823;28;20475;-77
2024/01/24 02:40:54;;;;;;;3.47;1.90;;;;;;;;;;5103490;28;20096;-77
2024/01/24 02:43:19;;;;;;;1.83;1.73;;;;;;;;;;5111740;28;20122;-77
2024/01/24 02:45:44;;;;;;;2.37;1.80;;;;;;;;;;5104128;28;20028;-77
2024/01/24 02:48:10;;;;;;;1.90;1.67;;;;;;;;;;5110461;28;20019;-77
2024/01/24 02:50:35;;;;;;;3.70;1.52;;;;;;;;;;5105174;28;20032;-77
2024/01/24 02:53:01;;;;;;;2.75;1.70;;;;;;;;;;5108809;28;20119;-77
2024/01/24 02:55:26;;;;;;;2.03;1.60;;;;;;;;;;5106463;28;20008;-76
2024/01/24 02:57:51;;;;;;;2.00;1.80;;;;;;;;;;5109602;28;20019;-76
2024/01/24 03:00:17;;;;;;;3.07;1.70;;;;;;;;;;5107485;28;20122;-77
2024/01/24 03:02:42;;;;;;;2.95;1.60;;;;;;;;;;5101815;28;20288;-77
2024/01/24 03:05:08;;;;;;;1.93;1.70;;;;;;;;;;5106312;28;20485;-76
2024/01/24 03:07:34;;;;;;;1.77;1.60;;;;;;;;;;5107195;28;20084;-76
2024/01/24 03:09:59;;;;;;;2.83;2.00;;;;;;;;;;5103801;28;20425;-76
2024/01/24 03:12:24;;;;;;;2.10;1.90;;;;;;;;;;5106739;28;20019;-76
2024/01/24 03:14:49;;;;;;;2.77;2.27;;;;;;;;;;5104614;28;20024;-76
2024/01/24 03:17:15;;;;;;;3.17;2.20;;;;;;;;;;5106339;28;20281;-76
2024/01/24 03:19:40;;;;;;;2.40;1.73;;;;;;;;;;5106362;28;20412;-76
2024/01/24 03:22:05;;;;;;;2.17;1.97;;;;;;;;;;5105209;28;20020;-76
2024/01/24 03:24:30;;;;;;;2.73;1.80;;;;;;;;;;5105601;28;20457;-76
2024/01/24 03:26:55;;;;;;;3.00;1.80;;;;;;;;;;5104942;28;20024;-76
2024/01/24 03:29:21;;;;;;;2.60;1.83;;;;;;;;;;5106527;28;20031;-76
2024/01/24 03:31:46;;;;;;;2.45;1.60;;;;;;;;;;5106471;28;20789;-75
2024/01/24 03:34:11;;;;;;;3.43;1.57;;;;;;;;;;5104263;28;20031;-76
2024/01/24 03:36:37;;;;;;;2.97;1.75;;;;;;;;;;5108992;28;20376;-76
2024/01/24 03:39:03;;;;;;;4.20;1.70;;;;;;;;;;5104739;28;20204;-76
2024/01/24 03:41:29;;;;;;;3.25;1.45;;;;;;;;;;5105685;28;20016;-76
2024/01/24 03:43:54;;;;;;;4.37;1.80;;;;;;;;;;5103936;28;20035;-76
2024/01/24 03:46:20;;;;;;;4.43;2.17;;;;;;;;;;5103542;28;20281;-76
2024/01/24 03:48:45;;;;;;;5.00;2.08;;;;;;;;;;5103801;28;20340;-76
2024/01/24 03:51:11;;;;;;;3.78;1.90;;;;;;;;;;5102961;28;20028;-76
2024/01/24 03:53:36;;;;;;;6.38;2.00;;;;;;;;;;5105945;28;20024;-76
2024/01/24 03:56:01;;;;;;;5.63;2.43;;;;;;;;;;5104204;28;20022;-76
2024/01/24 03:58:27;;;;;;;6.75;2.30;;;;;;;;;;5109570;28;20475;-76
2024/01/24 04:00:54;;;;;;;9.07;2.60;;;;;;;;;;5102623;28;20024;-76
2024/01/24 04:03:20;;;;;;;11.90;2.67;;;;;;;;;;5110819;28;20103;-76
2024/01/24 04:05:45;;;;;;;9.30;3.20;;;;;;;;;;5106051;28;20051;-76
2024/01/24 04:08:10;;;;;;;10.23;2.37;;;;;;;;;;5109129;28;20289;-76
2024/01/24 04:10:35;;;;;;;10.80;2.87;;;;;;;;;;5104552;28;20035;-77
2024/01/24 04:13:00;;;;;;;10.48;2.35;;;;;;;;;;5105765;28;20023;-77
2024/01/24 04:15:27;;;;;;;12.87;3.03;;;;;;;;;;5105761;28;20020;-77
2024/01/24 04:17:52;;;;;;;15.05;2.70;;;;;;;;;;5102556;28;20286;-77
2024/01/24 04:20:17;;;;;;;10.18;2.30;;;;;;;;;;5105045;28;20011;-77
2024/01/24 04:22:42;;;;;;;13.47;2.90;;;;;;;;;;5104758;28;20466;-77
2024/01/24 04:25:07;;;;;;;13.20;2.57;;;;;;;;;;5103594;28;20104;-77
2024/01/24 04:27:33;;;;;;;13.38;2.83;;;;;;;;;;5104577;28;20016;-77
2024/01/24 04:29:58;;;;;;;12.87;3.97;;;;;;;;;;5102362;28;20027;-77
2024/01/24 04:32:23;;;;;;;11.13;2.67;;;;;;;;;;5105701;28;20274;-77
2024/01/24 04:34:48;;;;;;;12.20;2.83;;;;;;;;;;5102453;28;20026;-77
2024/01/24 04:37:13;;;;;;;15.63;4.23;;;;;;;;;;5103772;28;20458;-77
2024/01/24 04:39:39;;;;;;;9.97;2.73;;;;;;;;;;5105198;28;20285;-77
2024/01/24 04:42:04;;;;;;;13.90;3.73;;;;;;;;;;5103393;28;20265;-76
2024/01/24 04:44:30;;;;;;;14.63;3.20;;;;;;;;;;5105333;28;20277;-77
2024/01/24 04:46:55;;;;;;;17.02;4.15;;;;;;;;;;5104237;28;20288;-76
2024/01/24 04:49:20;;;;;;;15.85;3.42;;;;;;;;;;5104415;28;20044;-77
2024/01/24 04:51:45;;;;;;;15.43;3.58;;;;;;;;;;5104827;28;20080;-77
2024/01/24 04:54:11;;;;;;;19.95;3.47;;;;;;;;;;5103663;28;20030;-77
2024/01/24 04:56:38;;;;;;;14.67;3.37;;;;;;;;;;5105147;28;20016;-77
2024/01/24 04:59:03;;;;;;;15.98;3.45;;;;;;;;;;5105659;28;20302;-77
2024/01/24 05:01:28;;;;;;;20.88;4.32;;;;;;;;;;5102630;28;20060;-77
2024/01/24 05:03:54;;;;;;;18.90;3.53;;;;;;;;;;5108072;28;20379;-77
2024/01/24 05:06:20;;;;;;;17.90;3.85;;;;;;;;;;5105786;28;20270;-77
2024/01/24 05:08:45;;;;;;;22.08;5.63;;;;;;;;;;5108914;28;20455;-77
2024/01/24 05:11:10;;;;;;;20.73;3.73;;;;;;;;;;5101215;28;20036;-77
2024/01/24 05:13:36;;;;;;;21.73;4.10;;;;;;;;;;5102355;28;20035;-76
2024/01/24 05:16:02;;;;;;;21.80;4.80;;;;;;;;;;5105089;27;20028;-77
2024/01/24 05:18:27;;;;;;;19.10;4.72;;;;;;;;;;5101380;28;20128;-77
2024/01/24 05:20:52;;;;;;;20.50;5.17;;;;;;;;;;5106924;28;20115;-76
2024/01/24 05:23:17;;;;;;;17.47;4.90;;;;;;;;;;5100449;28;20016;-77
2024/01/24 05:25:42;;;;;;;19.73;4.43;;;;;;;;;;5106861;28;20027;-76
2024/01/24 05:28:09;;;;;;;22.20;5.57;;;;;;;;;;5101249;28;20018;-77
2024/01/24 05:30:34;;;;;;;23.75;4.82;;;;;;;;;;5104964;28;20118;-77
2024/01/24 05:32:59;;;;;;;15.03;4.63;;;;;;;;;;5107645;28;20442;-77
2024/01/24 05:35:25;;;;;;;21.37;4.20;;;;;;;;;;5103694;28;20071;-77
2024/01/24 05:37:50;;;;;;;19.73;5.03;;;;;;;;;;5103581;28;20266;-76
2024/01/24 05:40:15;;;;;;;22.73;6.03;;;;;;;;;;5101646;28;20072;-77
2024/01/24 05:42:40;;;;;;;22.23;4.90;;;;;;;;;;5106332;28;20379;-77
2024/01/24 05:45:06;;;;;;;23.33;4.95;;;;;;;;;;5106259;28;20023;-77
2024/01/24 05:47:31;;;;;;;22.17;4.40;;;;;;;;;;5104509;28;20012;-77
2024/01/24 05:49:58;;;;;;;24.10;4.53;;;;;;;;;;5104018;28;20116;-77
2024/01/24 05:52:23;;;;;;;22.08;4.78;;;;;;;;;;5102624;28;20061;-77
2024/01/24 05:54:48;;;;;;;23.97;6.37;;;;;;;;;;5103815;28;20399;-77
2024/01/24 05:57:13;;;;;;;20.23;5.13;;;;;;;;;;5109146;28;20317;-77
2024/01/24 05:59:38;;;;;;;21.00;5.47;;;;;;;;;;5103835;28;20304;-77
2024/01/24 06:02:03;;;;;;;20.70;5.03;;;;;;;;;;5104144;28;20447;-77
2024/01/24 06:04:28;;;;;;;18.20;4.87;;;;;;;;;;5103759;28;20026;-77
2024/01/24 06:06:54;;;;;;;29.57;6.77;;;;;;;;;;5106135;28;20459;-76
2024/01/24 06:09:20;;;;;;;22.75;5.05;;;;;;;;;;5104405;28;20297;-77
2024/01/24 06:11:48;;;;;;;21.98;4.93;;;;;;;;;;5101759;28;20138;-77
2024/01/24 06:14:13;;;;;;;21.15;5.57;;;;;;;;;;5106566;28;20028;-77
2024/01/24 06:16:38;;;;;;;24.08;5.93;;;;;;;;;;5101721;28;20031;-76
2024/01/24 06:19:03;;;;;;;33.53;6.07;;;;;;;;;;5102826;28;20046;-77
2024/01/24 06:21:28;;;;;;;28.80;6.43;;;;;;;;;;5102362;28;20361;-77
2024/01/24 06:23:54;;;;;;;25.27;5.50;;;;;;;;;;5102361;28;20031;-77
2024/01/24 06:26:19;;;;;;;27.53;5.47;;;;;;;;;;5103579;28;20024;-76
2024/01/24 06:28:44;;;;;;;28.00;6.83;;;;;;;;;;5100488;28;20020;-77
2024/01/24 06:31:09;;;;;;;27.83;6.40;;;;;;;;;;5106522;28;20126;-77
2024/01/24 06:33:34;;;;;;;25.83;6.43;;;;;;;;;;5099895;28;20065;-76
2024/01/24 06:36:00;;;;;;;25.85;5.60;;;;;;;;;;5106673;28;20016;-77
2024/01/24 06:38:26;;;;;;;26.45;6.30;;;;;;;;;;5100404;28;20008;-77
2024/01/24 06:40:52;;;;;;;27.92;6.32;;;;;;;;;;5099171;28;20016;-77
2024/01/24 06:43:18;;;;;;;25.33;5.90;;;;;;;;;;5108156;28;20042;-77
2024/01/24 06:45:44;;;;;;;31.55;7.38;;;;;;;;;;5100378;28;20020;-76
2024/01/24 06:48:09;;;;;;;27.63;6.32;;;;;;;;;;5107511;28;20540;-77
2024/01/24 06:50:35;;;;;;;30.67;6.60;;;;;;;;;;5100513;28;20349;-77
2024/01/24 06:53:00;;;;;;;23.35;6.40;;;;;;;;;;5106842;28;20054;-77
2024/01/24 06:55:25;;;;;;;26.40;6.60;;;;;;;;;;5101011;28;20072;-77
2024/01/24 06:57:50;;;;;;;33.93;5.30;;;;;;;;;;5111048;28;20378;-76
2024/01/24 07:00:15;;;;;;;28.80;6.43;;;;;;;;;;5104832;28;20048;-77
2024/01/24 07:02:41;;;;;;;33.65;8.02;;;;;;;;;;5106100;28;20489;-76
2024/01/24 07:05:06;;;;;;;32.03;7.25;;;;;;;;;;5107086;28;20375;-77
2024/01/24 07:07:32;;;;;;;34.67;7.40;;;;;;;;;;5108522;28;20020;-77
2024/01/24 07:09:57;;;;;;;26.92;6.43;;;;;;;;;;5105348;28;20391;-77
2024/01/24 07:12:22;;;;;;;34.50;7.50;;;;;;;;;;5107197;28;20095;-77
2024/01/24 07:14:48;;;;;;;31.45;7.32;;;;;;;;;;5105779;28;20278;-77
2024/01/24 07:17:13;;;;;;;28.80;5.95;;;;;;;;;;5106859;28;20031;-77
2024/01/24 07:19:38;;;;;;;34.45;6.53;;;;;;;;;;5104008;28;20165;-77
2024/01/24 07:22:03;;;;;;;25.90;5.80;;;;;;;;;;5105998;28;20011;-76
2024/01/24 07:24:29;;;;;;;32.13;7.50;;;;;;;;;;5105673;28;20489;-76
2024/01/24 07:26:54;;;;;;;33.55;7.07;;;;;;;;;;5104596;28;20016;-76
2024/01/24 07:29:20;;;;;;;35.17;6.03;;;;;;;;;;5114280;28;20031;-76
2024/01/24 07:31:45;;;;;;;29.42;6.32;;;;;;;;;;5104599;28;20032;-76
2024/01/24 07:34:11;;;;;;;29.37;6.93;;;;;;;;;;5106207;28;20529;-76
2024/01/24 07:36:37;;;;;;;29.77;6.45;;;;;;;;;;5106014;28;20277;-77
2024/01/24 07:39:04;;;;;;;39.45;7.35;;;;;;;;;;5103822;28;20016;-77
2024/01/24 07:41:29;;;;;;;30.20;7.00;;;;;;;;;;5106432;28;20030;-77
2024/01/24 07:43:55;;;;;;;29.77;5.78;;;;;;;;;;5105243;28;20024;-76
2024/01/24 07:46:20;;;;;;;41.28;7.22;;;;;;;;;;5105572;28;20028;-76
2024/01/24 07:48:45;;;;;;;28.88;6.88;;;;;;;;;;5107928;28;20012;-76
2024/01/24 07:51:11;;;;;;;33.47;6.10;;;;;;;;;;5102587;28;20454;-76
2024/01/24 07:53:38;;;;;;;23.43;5.30;;;;;;;;;;5110562;28;20463;-76
2024/01/24 07:56:03;;;;;;;25.55;6.70;;;;;;;;;;5106395;28;20012;-76
2024/01/24 07:58:28;;;;;;;23.98;6.40;;;;;;;;;;5109929;28;20515;-77
2024/01/24 08:00:55;;;;;;;28.73;7.00;;;;;;;;;;5102781;28;20479;-76
2024/01/24 08:03:20;;;;;;;30.30;5.78;;;;;;;;;;5110878;28;20016;-76
2024/01/24 08:05:46;;;;;;;35.03;7.13;;;;;;;;;;5104312;28;20027;-76
2024/01/24 08:08:11;;;;;;;33.83;7.67;;;;;;;;;;5109116;28;20016;-76
2024/01/24 08:10:36;;;;;;;36.72;7.20;;;;;;;;;;5104194;28;20304;-76
2024/01/24 08:13:01;;;;;;;34.30;7.43;;;;;;;;;;5105069;28;20425;-77
2024/01/24 08:15:26;;;;;;;34.17;7.60;;;;;;;;;;5105895;28;20011;-76
2024/01/24 08:17:52;;;;;;;26.23;6.57;;;;;;;;;;5102388;28;20304;-76
2024/01/24 08:20:19;;;;;;;32.03;6.13;;;;;;;;;;5105111;28;20277;-76
2024/01/24 08:22:44;;;;;;;31.00;7.38;;;;;;;;;;5105106;28;20422;-76
2024/01/24 08:25:10;;;;;;;29.42;6.05;;;;;;;;;;5110561;28;20051;-76
2024/01/24 08:27:36;;;;;;;30.03;6.47;;;;;;;;;;5105375;28;20020;-77
2024/01/24 08:30:01;;;;;;;32.55;6.47;;;;;;;;;;5102493;28;20047;-76
2024/01/24 08:32:26;;;;;;;34.65;7.97;;;;;;;;;;5104780;28;20024;-76
2024/01/24 08:34:52;;;;;;;29.07;6.10;;;;;;;;;;5102749;28;20019;-76
2024/01/24 08:37:17;;;;;;;32.05;7.95;;;;;;;;;;5105222;28;20481;-76
2024/01/24 08:39:42;;;;;;;30.43;6.13;;;;;;;;;;5104025;28;20019;-77
2024/01/24 08:42:07;;;;;;;32.57;6.43;;;;;;;;;;5104149;28;20024;-76
2024/01/24 08:44:33;;;;;;;32.00;6.97;;;;;;;;;;5104281;28;20121;-77
2024/01/24 08:46:58;;;;;;;28.63;6.32;;;;;;;;;;5104508;28;20336;-76
2024/01/24 08:49:23;;;;;;;31.63;6.22;;;;;;;;;;5105714;28;20024;-77
2024/01/24 08:51:48;;;;;;;31.88;7.05;;;;;;;;;;5100633;28;20390;-76
2024/01/24 08:54:13;;;;;;;34.07;6.57;;;;;;;;;;5103439;28;20016;-76
2024/01/24 08:56:39;;;;;;;31.63;7.07;;;;;;;;;;5105155;28;20501;-76
2024/01/24 08:59:04;;;;;;;32.90;6.33;;;;;;;;;;5105763;28;20351;-76
2024/01/24 09:01:29;;;;;;;25.58;6.93;;;;;;;;;;5102214;28;20323;-76
2024/01/24 09:03:55;;;;;;;28.52;6.22;;;;;;;;;;5108091;28;20062;-77
2024/01/24 09:06:25;;;;;;;34.47;7.87;;;;;;;;;;5103996;28;20023;-78
2024/01/24 09:08:53;;;;;;;31.08;6.63;;;;;;;;;;5100465;28;20711;-77
2024/01/24 09:11:19;;;;;;;35.17;7.57;;;;;;;;;;5101633;28;20035;-76
2024/01/24 09:13:45;;;;;;;32.20;7.45;;;;;;;;;;5109897;28;20011;-76
2024/01/24 09:16:10;;;;;;;31.95;7.57;;;;;;;;;;5100768;28;20095;-76
2024/01/24 09:18:35;;;;;;;32.63;7.10;;;;;;;;;;5110076;28;20098;-77
2024/01/24 09:21:01;;;;;;;34.00;7.30;;;;;;;;;;5100711;28;20429;-76
2024/01/24 09:23:26;;;;;;;36.97;7.38;;;;;;;;;;5100118;28;20273;-76
2024/01/24 09:25:51;;;;;;;30.33;7.80;;;;;;;;;;5106969;28;20035;-76
2024/01/24 09:28:17;;;;;;;33.33;6.93;;;;;;;;;;5100222;28;20016;-76
2024/01/24 09:30:42;;;;;;;35.45;7.47;;;;;;;;;;5106104;28;20322;-76
2024/01/24 09:33:07;;;;;;;36.97;7.33;;;;;;;;;;5101883;28;20473;-77
2024/01/24 09:35:32;;;;;;;31.15;6.82;;;;;;;;;;5103753;28;20027;-76
2024/01/24 09:37:57;;;;;;;37.28;8.15;;;;;;;;;;5103529;28;20081;-76
2024/01/24 09:40:23;;;;;;;30.30;6.70;;;;;;;;;;5101196;28;20039;-76
2024/01/24 09:42:48;;;;;;;34.93;7.37;;;;;;;;;;5105574;28;20756;-77
2024/01/24 09:45:14;;;;;;;31.73;7.07;;;;;;;;;;5102702;28;20346;-77
2024/01/24 09:47:41;;;;;;;29.23;6.60;;;;;;;;;;5104658;28;20640;-76
2024/01/24 09:50:08;;;;;;;32.50;7.13;;;;;;;;;;5103474;28;20036;-77
2024/01/24 09:52:33;;;;;;;30.95;7.00;;;;;;;;;;5103208;28;20286;-77
2024/01/24 09:54:59;;;;;;;36.13;8.40;;;;;;;;;;5104438;28;20016;-76
2024/01/24 09:57:26;;;;;;;27.88;6.82;;;;;;;;;;5103004;28;20024;-76
2024/01/24 09:59:51;;;;;;;32.08;7.63;;;;;;;;;;5103608;28;20113;-76
2024/01/24 10:02:17;;;;;;;28.90;6.23;;;;;;;;;;5102361;28;20364;-76
2024/01/24 10:04:43;;;;;;;36.33;7.22;;;;;;;;;;5102314;28;20757;-76
2024/01/24 10:07:09;;;;;;;30.63;6.53;;;;;;;;;;5106375;28;20020;-76
2024/01/24 10:09:34;;;;;;;34.53;7.65;;;;;;;;;;5103158;28;20072;-77
2024/01/24 10:12:00;;;;;;;36.33;6.97;;;;;;;;;;5102963;28;20028;-77
2024/01/24 10:14:26;;;;;;;37.83;7.75;;;;;;;;;;5101593;28;20737;-77
2024/01/24 10:16:51;;;;;;;34.65;7.55;;;;;;;;;;5103126;28;20024;-76
2024/01/24 10:19:24;;;;;;;30.63;6.63;;;;;;;;;;5103314;28;20475;-77
2024/01/24 10:21:49;;;;;;;35.03;7.97;;;;;;;;;;5100537;28;20781;-77
2024/01/24 10:24:14;;;;;;;28.63;6.50;;;;;;;;;;5112404;28;20022;-76
2024/01/24 10:26:39;;;;;;;30.67;6.07;;;;;;;;;;5101104;28;20024;-76
2024/01/24 10:29:06;;;;;;;34.72;7.90;;;;;;;;;;5102630;28;20320;-76
2024/01/24 10:31:31;;;;;;;33.63;6.93;;;;;;;;;;5103037;28;20040;-76
2024/01/24 10:33:57;;;;;;;30.73;6.27;;;;;;;;;;5100847;28;20531;-76
2024/01/24 10:36:23;;;;;;;32.50;6.95;;;;;;;;;;5109282;28;20016;-76
2024/01/24 10:38:49;;;;;;;31.90;6.35;;;;;;;;;;5106285;28;20875;-77
2024/01/24 10:41:14;;;;;;;32.20;5.70;;;;;;;;;;5107872;28;20051;-76
2024/01/24 10:43:42;;;;;;;34.08;7.32;;;;;;;;;;5110012;28;20028;-76
2024/01/24 10:46:08;;;;;;;25.00;6.32;;;;;;;;;;5104428;28;20019;-76
2024/01/24 10:48:33;;;;;;;30.25;6.50;;;;;;;;;;5111442;28;20370;-77
2024/01/24 10:50:59;;;;;;;30.90;7.13;;;;;;;;;;5103858;28;20115;-76
2024/01/24 10:53:24;;;;;;;27.95;7.22;;;;;;;;;;5111411;28;20027;-77
2024/01/24 10:55:50;;;;;;;28.70;6.30;;;;;;;;;;5103935;28;20012;-76
2024/01/24 10:58:15;;;;;;;30.95;7.13;;;;;;;;;;5112066;28;20348;-76
2024/01/24 11:00:41;;;;;;;26.00;6.17;;;;;;;;;;5103068;28;20475;-76
2024/01/24 11:03:07;;;;;;;29.88;6.30;;;;;;;;;;5110353;28;20741;-76
2024/01/24 11:05:35;;;;;;;28.02;6.05;;;;;;;;;;5106821;28;20098;-76
2024/01/24 11:08:05;;;;;;;26.92;6.47;;;;;;;;;;5108334;28;20016;-76
2024/01/24 11:10:36;;;;;;;33.97;6.72;;;;;;;;;;5106387;28;20459;-77
2024/01/24 11:13:03;;;;;;;31.75;6.47;;;;;;;;;;5107849;28;20516;-77
2024/01/24 11:15:29;;;;;;;32.45;7.35;;;;;;;;;;5106080;28;20642;-76
2024/01/24 11:18:13;;;;;;;26.42;6.00;;;;;;;;;;5103465;28;20027;-76
2024/01/24 11:20:45;;;;;;;23.30;6.18;;;;;;;;;;5109454;28;20051;-77
2024/01/24 11:23:30;;;;;;;36.63;5.43;;;;;;;;;;5103630;28;20095;-76
2024/01/24 11:25:56;;;;;;;31.05;6.40;;;;;;;;;;5109016;28;20059;-77
2024/01/24 11:28:24;;;;;;;22.60;5.75;;;;;;;;;;5102327;28;20059;-76
2024/01/24 11:30:49;;;;;;;29.00;6.80;;;;;;;;;;5109508;28;20395;-76
2024/01/24 11:33:15;;;;;;;32.97;6.87;;;;;;;;;;5103325;28;20016;-76
2024/01/24 11:35:41;;;;;;;31.83;5.93;;;;;;;;;;5107471;28;20273;-76
2024/01/24 11:38:26;;;;;;;31.13;6.13;;;;;;;;;;5104852;28;20043;-77
2024/01/24 11:40:52;;;;;;;30.50;6.18;;;;;;;;;;5102694;28;20028;-77
2024/01/24 11:43:24;;;;;;;24.25;6.03;;;;;;;;;;5110188;28;20061;-76
2024/01/24 11:45:56;;;;;;;31.35;6.85;;;;;;;;;;5102682;28;20025;-77
2024/01/24 11:48:21;;;;;;;28.45;5.47;;;;;;;;;;5111186;28;20051;-76
2024/01/24 11:51:13;;;;;;;32.60;5.60;;;;;;;;;;5101681;28;20082;-77
2024/01/24 11:53:38;;;;;;;27.75;6.38;;;;;;;;;;5099189;28;20032;-76
2024/01/24 11:56:05;;;;;;;32.17;6.40;;;;;;;;;;5102176;28;20035;-77
2024/01/24 11:58:30;;;;;;;27.38;6.55;;;;;;;;;;5111080;28;20055;-77
2024/01/24 12:00:58;;;;;;;27.92;5.80;;;;;;;;;;5102289;28;20487;-77
2024/01/24 12:03:23;;;;;;;25.17;5.43;;;;;;;;;;5110867;28;20023;-76
2024/01/24 12:05:49;;;;;;;31.53;6.07;;;;;;;;;;5105175;28;20026;-77
2024/01/24 12:08:14;;;;;;;24.77;5.35;;;;;;;;;;5102899;28;20625;-76
2024/01/24 12:10:40;;;;;;;28.05;4.97;;;;;;;;;;5107721;28;20515;-77
2024/01/24 12:13:05;;;;;;;27.67;6.03;;;;;;;;;;5102069;28;20012;-76
2024/01/24 12:15:32;;;;;;;24.67;6.18;;;;;;;;;;5108293;28;20098;-76
2024/01/24 12:18:01;;;;;;;24.30;5.18;;;;;;;;;;5101501;28;20050;-77
2024/01/24 12:20:26;;;;;;;26.33;5.95;;;;;;;;;;5106790;28;20019;-76
2024/01/24 12:22:51;;;;;;;27.98;6.15;;;;;;;;;;5105067;28;20517;-77
2024/01/24 12:25:17;;;;;;;27.23;5.95;;;;;;;;;;5111226;28;20040;-76
2024/01/24 12:27:42;;;;;;;20.90;5.13;;;;;;;;;;5105331;28;20018;-77
2024/01/24 12:30:07;;;;;;;25.70;5.93;;;;;;;;;;5103259;28;20032;-76
2024/01/24 12:32:32;;;;;;;22.60;6.53;;;;;;;;;;5104739;28;20334;-76
2024/01/24 12:34:58;;;;;;;28.37;6.03;;;;;;;;;;5102953;28;20058;-77
2024/01/24 12:37:24;;;;;;;23.77;5.22;;;;;;;;;;5105638;28;20038;-76
2024/01/24 12:39:56;;;;;;;27.92;5.43;;;;;;;;;;5107895;28;20019;-76
2024/01/24 12:42:21;;;;;;;26.65;6.03;;;;;;;;;;5104729;28;20107;-76
2024/01/24 12:44:50;;;;;;;27.75;5.75;;;;;;;;;;5105094;28;20102;-77
2024/01/24 12:47:16;;;;;;;23.95;5.43;;;;;;;;;;5103978;28;20062;-76
2024/01/24 12:49:41;;;;;;;25.20;6.13;;;;;;;;;;5104644;28;20055;-76
2024/01/24 12:52:06;;;;;;;22.93;6.20;;;;;;;;;;5104846;28;20316;-77
2024/01/24 12:54:31;;;;;;;22.65;5.15;;;;;;;;;;5104431;28;20300;-77
2024/01/24 12:56:56;;;;;;;23.30;5.37;;;;;;;;;;5104525;28;20032;-76
2024/01/24 12:59:22;;;;;;;23.07;5.63;;;;;;;;;;5103147;28;20360;-77
2024/01/24 13:01:47;;;;;;;22.53;4.63;;;;;;;;;;5104626;28;20027;-76
2024/01/24 13:04:13;;;;;;;25.98;5.47;;;;;;;;;;5105841;28;20031;-77
2024/01/24 13:06:40;;;;;;;21.05;6.15;;;;;;;;;;5105563;28;20027;-76
2024/01/24 13:09:05;;;;;;;31.02;5.47;;;;;;;;;;5107562;28;20027;-77
2024/01/24 13:11:31;;;;;;;25.00;5.45;;;;;;;;;;5102020;28;20028;-77
2024/01/24 13:13:56;;;;;;;25.70;5.47;;;;;;;;;;5108562;28;20023;-77
2024/01/24 13:16:22;;;;;;;20.03;5.17;;;;;;;;;;5101148;28;20081;-77
2024/01/24 13:18:47;;;;;;;19.40;5.18;;;;;;;;;;5102551;28;20258;-77
2024/01/24 13:21:12;;;;;;;22.47;4.93;;;;;;;;;;5104943;28;20527;-77
2024/01/24 13:23:38;;;;;;;24.45;5.78;;;;;;;;;;5101310;28;20048;-76
2024/01/24 13:26:04;;;;;;;30.50;6.50;;;;;;;;;;5107146;28;20024;-77
2024/01/24 13:28:29;;;;;;;23.27;5.00;;;;;;;;;;5101226;28;20424;-76
2024/01/24 13:30:54;;;;;;;23.43;5.50;;;;;;;;;;5106696;28;20457;-76
2024/01/24 13:33:19;;;;;;;24.00;6.43;;;;;;;;;;5101351;28;20273;-76
2024/01/24 13:35:45;;;;;;;26.75;6.43;;;;;;;;;;5105649;28;20031;-76
2024/01/24 13:38:11;;;;;;;38.30;6.00;;;;;;;;;;5101849;28;20382;-76
2024/01/24 13:40:36;;;;;;;31.88;5.35;;;;;;;;;;5100972;28;20028;-76
2024/01/24 13:43:01;;;;;;;28.10;6.00;;;;;;;;;;5107846;28;20026;-77
2024/01/24 13:45:26;;;;;;;26.33;5.37;;;;;;;;;;5100764;28;20151;-76
2024/01/24 13:47:52;;;;;;;23.60;5.47;;;;;;;;;;5106726;28;20617;-76
2024/01/24 13:50:17;;;;;;;21.60;5.30;;;;;;;;;;5101921;28;20293;-77
2024/01/24 13:52:42;;;;;;;24.03;4.93;;;;;;;;;;5105132;28;20087;-76
2024/01/24 13:55:07;;;;;;;20.37;5.17;;;;;;;;;;5104388;28;20324;-76
2024/01/24 13:57:32;;;;;;;22.95;5.28;;;;;;;;;;5102883;28;20277;-77
2024/01/24 13:59:58;;;;;;;27.20;5.93;;;;;;;;;;5103605;28;20043;-76
2024/01/24 14:02:23;;;;;;;25.48;5.47;;;;;;;;;;5103873;28;20334;-76
2024/01/24 14:04:48;;;;;;;24.70;4.77;;;;;;;;;;5102773;28;20444;-76
2024/01/24 14:07:13;;;;;;;21.30;5.27;;;;;;;;;;5106826;28;20285;-76
2024/01/24 14:09:38;;;;;;;27.30;5.23;;;;;;;;;;5102499;28;20059;-76
2024/01/24 14:12:04;;;;;;;23.47;5.33;;;;;;;;;;5107895;28;20364;-77
2024/01/24 14:14:29;;;;;;;24.30;5.30;;;;;;;;;;5108375;28;20013;-76
2024/01/24 14:16:55;;;;;;;26.27;5.47;;;;;;;;;;5107097;28;20023;-76
2024/01/24 14:19:21;;;;;;;26.83;5.10;;;;;;;;;;5107613;28;20525;-76
2024/01/24 14:21:46;;;;;;;20.88;5.50;;;;;;;;;;5104181;28;20024;-76
2024/01/24 14:24:11;;;;;;;25.42;5.55;;;;;;;;;;5107628;28;20008;-76